sensor_id;sensor_type;location;lat;lon;timestamp;pressure;altitude;pressure_sealevel;temperature;humidity
10115;BME280;5097;43.260;27.812;2023-08-21T00:01:40;99983.47;;;25.84;34.21
10115;BME280;5097;43.260;27.812;2023-08-21T00:04:24;100019.13;;;26.02;34.06
10115;BME280;5097;43.260;27.812;2023-08-21T00:07:08;99984.84;;;25.80;34.16
10115;BME280;5097;43.260;27.812;2023-08-21T00:09:54;99978.63;;;25.94;33.88
10115;BME280;5097;43.260;27.812;2023-08-21T00:12:38;99970.31;;;25.96;33.94
10115;BME280;5097;43.260;27.812;2023-08-21T00:15:22;100013.38;;;26.05;33.95
10115;BME280;5097;43.260;27.812;2023-08-21T00:18:07;100010.94;;;26.10;33.81
10115;BME280;5097;43.260;27.812;2023-08-21T00:20:52;100005.53;;;26.10;34.19
10115;BME280;5097;43.260;27.812;2023-08-21T00:23:36;99973.41;;;25.77;34.79
10115;BME280;5097;43.260;27.812;2023-08-21T00:26:21;99988.88;;;25.84;34.67
10115;BME280;5097;43.260;27.812;2023-08-21T00:29:05;100018.75;;;25.90;35.01
10115;BME280;5097;43.260;27.812;2023-08-21T00:31:49;100015.41;;;25.88;35.36
10115;BME280;5097;43.260;27.812;2023-08-21T00:34:38;99989.28;;;25.42;35.83
10115;BME280;5097;43.260;27.812;2023-08-21T00:37:22;100014.38;;;25.51;36.25
10115;BME280;5097;43.260;27.812;2023-08-21T00:40:07;100007.16;;;25.43;36.53
10115;BME280;5097;43.260;27.812;2023-08-21T00:42:51;99983.78;;;25.04;37.27
10115;BME280;5097;43.260;27.812;2023-08-21T00:45:36;99977.94;;;24.92;38.00
10115;BME280;5097;43.260;27.812;2023-08-21T00:48:22;99970.22;;;24.89;38.15
10115;BME280;5097;43.260;27.812;2023-08-21T00:51:07;99993.28;;;25.00;38.17
10115;BME280;5097;43.260;27.812;2023-08-21T00:53:54;100023.78;;;25.09;38.76
10115;BME280;5097;43.260;27.812;2023-08-21T00:56:38;99985.66;;;25.04;38.38
10115;BME280;5097;43.260;27.812;2023-08-21T00:59:22;100020.53;;;25.14;38.52
10115;BME280;5097;43.260;27.812;2023-08-21T01:02:06;99988.94;;;24.91;38.60
10115;BME280;5097;43.260;27.812;2023-08-21T01:04:51;99989.63;;;24.85;38.63
10115;BME280;5097;43.260;27.812;2023-08-21T01:07:43;100009.44;;;25.08;38.62
10115;BME280;5097;43.260;27.812;2023-08-21T01:10:47;100020.59;;;25.05;38.65
10115;BME280;5097;43.260;27.812;2023-08-21T01:13:42;99991.31;;;24.86;38.52
10115;BME280;5097;43.260;27.812;2023-08-21T01:16:29;99985.75;;;24.87;38.69
10115;BME280;5097;43.260;27.812;2023-08-21T01:19:22;100022.31;;;24.98;38.56
10115;BME280;5097;43.260;27.812;2023-08-21T01:22:09;100015.72;;;25.01;38.86
10115;BME280;5097;43.260;27.812;2023-08-21T01:24:55;100017.97;;;24.97;38.87
10115;BME280;5097;43.260;27.812;2023-08-21T01:27:41;100018.59;;;24.99;38.93
10115;BME280;5097;43.260;27.812;2023-08-21T01:30:28;99981.59;;;24.76;38.92
10115;BME280;5097;43.260;27.812;2023-08-21T01:33:14;99992.25;;;24.70;39.14
10115;BME280;5097;43.260;27.812;2023-08-21T01:36:02;100018.97;;;24.96;39.10
10115;BME280;5097;43.260;27.812;2023-08-21T01:38:48;99997.09;;;24.83;38.90
10115;BME280;5097;43.260;27.812;2023-08-21T01:41:33;100025.19;;;24.97;39.18
10115;BME280;5097;43.260;27.812;2023-08-21T01:44:17;99991.44;;;24.69;39.16
10115;BME280;5097;43.260;27.812;2023-08-21T01:47:02;100014.13;;;24.83;39.16
10115;BME280;5097;43.260;27.812;2023-08-21T01:49:46;100006.97;;;24.67;39.53
10115;BME280;5097;43.260;27.812;2023-08-21T01:52:30;100030.16;;;24.85;39.36
10115;BME280;5097;43.260;27.812;2023-08-21T01:55:14;99992.25;;;24.70;39.31
10115;BME280;5097;43.260;27.812;2023-08-21T01:58:00;99986.41;;;24.66;39.30
10115;BME280;5097;43.260;27.812;2023-08-21T02:00:45;99996.25;;;24.82;38.97
10115;BME280;5097;43.260;27.812;2023-08-21T02:03:30;100026.44;;;25.17;38.78
10115;BME280;5097;43.260;27.812;2023-08-21T02:06:14;100004.38;;;25.05;38.81
10115;BME280;5097;43.260;27.812;2023-08-21T02:08:58;99979.09;;;24.98;38.59
10115;BME280;5097;43.260;27.812;2023-08-21T02:11:42;99998.25;;;25.12;38.48
10115;BME280;5097;43.260;27.812;2023-08-21T02:14:28;99997.34;;;25.19;38.38
10115;BME280;5097;43.260;27.812;2023-08-21T02:17:12;100030.66;;;25.43;38.10
10115;BME280;5097;43.260;27.812;2023-08-21T02:19:56;100028.03;;;25.35;38.65
10115;BME280;5097;43.260;27.812;2023-08-21T02:22:40;100022.09;;;25.31;38.76
10115;BME280;5097;43.260;27.812;2023-08-21T02:25:24;100019.09;;;25.26;39.09
10115;BME280;5097;43.260;27.812;2023-08-21T02:28:09;100026.78;;;25.14;39.44
10115;BME280;5097;43.260;27.812;2023-08-21T02:30:54;100024.81;;;25.08;39.95
10115;BME280;5097;43.260;27.812;2023-08-21T02:33:38;100028.75;;;24.97;40.66
10115;BME280;5097;43.260;27.812;2023-08-21T02:36:22;100035.66;;;24.60;41.96
10115;BME280;5097;43.260;27.812;2023-08-21T02:39:06;100015.22;;;24.26;42.52
10115;BME280;5097;43.260;27.812;2023-08-21T02:41:50;100037.97;;;24.32;43.20
10115;BME280;5097;43.260;27.812;2023-08-21T02:44:34;100012.22;;;24.13;43.56
10115;BME280;5097;43.260;27.812;2023-08-21T02:47:19;100033.81;;;24.13;44.21
10115;BME280;5097;43.260;27.812;2023-08-21T02:50:03;100004.31;;;23.86;44.89
10115;BME280;5097;43.260;27.812;2023-08-21T02:52:47;100038.53;;;24.02;45.35
10115;BME280;5097;43.260;27.812;2023-08-21T02:55:31;100028.44;;;23.96;45.78
10115;BME280;5097;43.260;27.812;2023-08-21T02:58:15;100036.16;;;23.83;46.29
10115;BME280;5097;43.260;27.812;2023-08-21T03:00:59;100032.13;;;23.79;46.59
10115;BME280;5097;43.260;27.812;2023-08-21T03:03:45;100000.97;;;23.51;47.10
10115;BME280;5097;43.260;27.812;2023-08-21T03:06:30;100035.19;;;23.67;47.40
10115;BME280;5097;43.260;27.812;2023-08-21T03:09:14;100021.38;;;23.62;47.59
10115;BME280;5097;43.260;27.812;2023-08-21T03:11:58;100035.50;;;23.56;48.07
10115;BME280;5097;43.260;27.812;2023-08-21T03:14:43;100035.34;;;23.57;48.33
10115;BME280;5097;43.260;27.812;2023-08-21T03:17:26;100027.41;;;23.48;48.59
10115;BME280;5097;43.260;27.812;2023-08-21T03:20:12;100038.19;;;23.56;48.97
10115;BME280;5097;43.260;27.812;2023-08-21T03:22:56;100054.72;;;23.45;49.35
10115;BME280;5097;43.260;27.812;2023-08-21T03:25:40;100052.50;;;23.48;49.39
10115;BME280;5097;43.260;27.812;2023-08-21T03:28:24;100039.91;;;23.40;49.71
10115;BME280;5097;43.260;27.812;2023-08-21T03:31:08;100050.69;;;23.40;50.06
10115;BME280;5097;43.260;27.812;2023-08-21T03:33:52;100054.03;;;23.51;49.98
10115;BME280;5097;43.260;27.812;2023-08-21T03:36:39;100050.84;;;23.47;50.30
10115;BME280;5097;43.260;27.812;2023-08-21T03:39:23;100055.72;;;23.43;50.48
10115;BME280;5097;43.260;27.812;2023-08-21T03:42:07;100015.59;;;23.24;50.63
10115;BME280;5097;43.260;27.812;2023-08-21T03:44:51;100052.34;;;23.41;50.83
10115;BME280;5097;43.260;27.812;2023-08-21T03:47:35;100057.41;;;23.36;51.03
10115;BME280;5097;43.260;27.812;2023-08-21T03:50:25;100055.56;;;23.37;50.99
10115;BME280;5097;43.260;27.812;2023-08-21T03:53:11;100057.41;;;23.45;51.03
10115;BME280;5097;43.260;27.812;2023-08-21T03:55:54;100067.16;;;23.37;51.42
10115;BME280;5097;43.260;27.812;2023-08-21T03:58:38;100074.25;;;23.47;51.33
10115;BME280;5097;43.260;27.812;2023-08-21T04:01:22;100041.56;;;23.25;51.64
10115;BME280;5097;43.260;27.812;2023-08-21T04:04:07;100074.94;;;23.57;51.70
10115;BME280;5097;43.260;27.812;2023-08-21T04:06:51;100039.56;;;23.43;51.53
10115;BME280;5097;43.260;27.812;2023-08-21T04:09:36;100074.97;;;23.82;51.17
10115;BME280;5097;43.260;27.812;2023-08-21T04:12:20;100071.44;;;23.89;50.89
10115;BME280;5097;43.260;27.812;2023-08-21T04:15:05;100068.38;;;24.17;50.00
10115;BME280;5097;43.260;27.812;2023-08-21T04:17:50;100071.75;;;24.19;49.95
10115;BME280;5097;43.260;27.812;2023-08-21T04:20:35;100070.19;;;24.33;49.53
10115;BME280;5097;43.260;27.812;2023-08-21T04:23:23;100059.72;;;24.38;49.54
10115;BME280;5097;43.260;27.812;2023-08-21T04:26:08;100069.13;;;24.51;49.31
10115;BME280;5097;43.260;27.812;2023-08-21T04:28:52;100068.13;;;24.43;49.58
10115;BME280;5097;43.260;27.812;2023-08-21T04:31:36;100054.09;;;24.48;49.27
10115;BME280;5097;43.260;27.812;2023-08-21T04:34:20;100071.78;;;24.59;49.41
10115;BME280;5097;43.260;27.812;2023-08-21T04:37:05;100076.31;;;24.75;49.29
10115;BME280;5097;43.260;27.812;2023-08-21T04:39:50;100064.19;;;24.71;49.57
10115;BME280;5097;43.260;27.812;2023-08-21T04:42:36;100062.91;;;24.90;48.83
10115;BME280;5097;43.260;27.812;2023-08-21T04:45:21;100061.56;;;24.86;48.98
10115;BME280;5097;43.260;27.812;2023-08-21T04:48:05;100074.97;;;25.10;48.55
10115;BME280;5097;43.260;27.812;2023-08-21T04:50:49;100057.06;;;25.09;48.44
10115;BME280;5097;43.260;27.812;2023-08-21T04:53:33;100069.25;;;25.37;47.90
10115;BME280;5097;43.260;27.812;2023-08-21T04:56:18;100076.81;;;25.41;47.51
10115;BME280;5097;43.260;27.812;2023-08-21T04:59:04;100058.97;;;25.55;46.98
10115;BME280;5097;43.260;27.812;2023-08-21T05:01:49;100074.53;;;25.76;46.10
10115;BME280;5097;43.260;27.812;2023-08-21T05:04:35;100078.38;;;25.97;45.87
10115;BME280;5097;43.260;27.812;2023-08-21T05:07:19;100067.53;;;25.82;46.38
10115;BME280;5097;43.260;27.812;2023-08-21T05:10:05;100081.22;;;26.04;46.23
10115;BME280;5097;43.260;27.812;2023-08-21T05:12:51;100067.16;;;25.85;46.76
10115;BME280;5097;43.260;27.812;2023-08-21T05:15:37;100076.69;;;26.04;46.63
10115;BME280;5097;43.260;27.812;2023-08-21T05:18:22;100063.59;;;26.08;46.41
10115;BME280;5097;43.260;27.812;2023-08-21T05:21:07;100078.84;;;26.24;46.03
10115;BME280;5097;43.260;27.812;2023-08-21T05:23:51;100043.19;;;26.20;45.63
10115;BME280;5097;43.260;27.812;2023-08-21T05:26:36;100078.75;;;26.62;45.56
10115;BME280;5097;43.260;27.812;2023-08-21T05:29:20;100068.31;;;26.59;44.65
10115;BME280;5097;43.260;27.812;2023-08-21T05:32:06;100070.72;;;26.84;44.18
10115;BME280;5097;43.260;27.812;2023-08-21T05:34:50;100080.53;;;26.85;44.55
10115;BME280;5097;43.260;27.812;2023-08-21T05:37:34;100077.53;;;26.95;44.10
10115;BME280;5097;43.260;27.812;2023-08-21T05:40:20;100074.41;;;27.13;43.58
10115;BME280;5097;43.260;27.812;2023-08-21T05:43:04;100064.47;;;27.20;42.83
10115;BME280;5097;43.260;27.812;2023-08-21T05:45:48;100072.25;;;27.45;42.44
10115;BME280;5097;43.260;27.812;2023-08-21T05:48:33;100080.53;;;27.58;41.88
10115;BME280;5097;43.260;27.812;2023-08-21T05:51:17;100087.03;;;27.85;41.83
10115;BME280;5097;43.260;27.812;2023-08-21T05:54:01;100072.72;;;27.98;41.21
10115;BME280;5097;43.260;27.812;2023-08-21T05:56:45;100085.88;;;28.23;40.51
10115;BME280;5097;43.260;27.812;2023-08-21T05:59:31;100081.16;;;28.38;40.06
10115;BME280;5097;43.260;27.812;2023-08-21T06:02:17;100091.50;;;28.50;39.91
10115;BME280;5097;43.260;27.812;2023-08-21T06:05:03;100094.28;;;28.63;39.48
10115;BME280;5097;43.260;27.812;2023-08-21T06:07:47;100090.78;;;28.69;39.36
10115;BME280;5097;43.260;27.812;2023-08-21T06:10:32;100060.28;;;28.74;38.61
10115;BME280;5097;43.260;27.812;2023-08-21T06:13:16;100096.81;;;29.13;38.25
10115;BME280;5097;43.260;27.812;2023-08-21T06:16:03;100095.63;;;29.29;38.29
10115;BME280;5097;43.260;27.812;2023-08-21T06:18:48;100093.81;;;29.43;37.98
10115;BME280;5097;43.260;27.812;2023-08-21T06:21:33;100103.66;;;29.84;37.34
10115;BME280;5097;43.260;27.812;2023-08-21T06:24:17;100108.75;;;29.94;37.43
10115;BME280;5097;43.260;27.812;2023-08-21T06:27:06;100064.97;;;29.89;37.23
10115;BME280;5097;43.260;27.812;2023-08-21T06:29:52;100110.41;;;29.95;37.73
10115;BME280;5097;43.260;27.812;2023-08-21T06:32:36;100104.09;;;30.21;37.02
10115;BME280;5097;43.260;27.812;2023-08-21T06:35:20;100097.81;;;30.34;36.82
10115;BME280;5097;43.260;27.812;2023-08-21T06:38:08;100092.75;;;30.31;36.63
10115;BME280;5097;43.260;27.812;2023-08-21T06:40:53;100102.16;;;30.62;36.58
10115;BME280;5097;43.260;27.812;2023-08-21T06:43:37;100102.72;;;30.84;36.46
10115;BME280;5097;43.260;27.812;2023-08-21T06:46:27;100110.63;;;30.99;35.69
10115;BME280;5097;43.260;27.812;2023-08-21T06:49:11;100111.44;;;31.06;35.49
10115;BME280;5097;43.260;27.812;2023-08-21T06:51:55;100111.75;;;31.30;34.81
10115;BME280;5097;43.260;27.812;2023-08-21T06:54:41;100105.94;;;31.20;35.45
10115;BME280;5097;43.260;27.812;2023-08-21T06:57:25;100109.34;;;31.08;35.52
10115;BME280;5097;43.260;27.812;2023-08-21T07:00:10;100116.63;;;31.67;34.95
10115;BME280;5097;43.260;27.812;2023-08-21T07:02:54;100118.56;;;31.85;32.86
10115;BME280;5097;43.260;27.812;2023-08-21T07:05:38;100120.63;;;31.89;33.30
10115;BME280;5097;43.260;27.812;2023-08-21T07:08:23;100124.78;;;31.92;33.65
10115;BME280;5097;43.260;27.812;2023-08-21T07:11:09;100102.31;;;32.22;33.78
10115;BME280;5097;43.260;27.812;2023-08-21T07:13:53;100118.63;;;32.29;33.50
10115;BME280;5097;43.260;27.812;2023-08-21T07:16:37;100133.41;;;32.21;32.86
10115;BME280;5097;43.260;27.812;2023-08-21T07:19:21;100111.56;;;32.21;33.17
10115;BME280;5097;43.260;27.812;2023-08-21T07:22:05;100129.88;;;32.39;33.40
10115;BME280;5097;43.260;27.812;2023-08-21T07:24:49;100124.03;;;32.35;33.02
10115;BME280;5097;43.260;27.812;2023-08-21T07:27:34;100124.97;;;32.48;32.45
10115;BME280;5097;43.260;27.812;2023-08-21T07:30:18;100122.53;;;32.58;32.89
10115;BME280;5097;43.260;27.812;2023-08-21T07:33:03;100045.50;;;32.24;32.60
10115;BME280;5097;43.260;27.812;2023-08-21T07:35:47;100119.75;;;32.83;30.76
10115;BME280;5097;43.260;27.812;2023-08-21T07:38:31;100124.63;;;32.81;31.12
10115;BME280;5097;43.260;27.812;2023-08-21T07:41:15;100126.28;;;32.82;31.01
10115;BME280;5097;43.260;27.812;2023-08-21T07:44:01;100122.09;;;32.98;30.44
10115;BME280;5097;43.260;27.812;2023-08-21T07:46:45;100114.16;;;33.08;31.49
10115;BME280;5097;43.260;27.812;2023-08-21T07:49:29;100103.56;;;32.82;30.94
10115;BME280;5097;43.260;27.812;2023-08-21T07:52:13;100103.34;;;33.32;30.02
10115;BME280;5097;43.260;27.812;2023-08-21T07:54:58;100116.22;;;33.32;30.38
10115;BME280;5097;43.260;27.812;2023-08-21T07:57:46;100097.88;;;33.32;29.75
10115;BME280;5097;43.260;27.812;2023-08-21T08:00:32;100112.28;;;33.39;29.42
10115;BME280;5097;43.260;27.812;2023-08-21T08:03:16;100113.63;;;33.49;29.86
10115;BME280;5097;43.260;27.812;2023-08-21T08:06:00;100114.41;;;33.68;29.85
10115;BME280;5097;43.260;27.812;2023-08-21T08:08:44;100116.06;;;33.69;29.88
10115;BME280;5097;43.260;27.812;2023-08-21T08:11:28;100128.22;;;33.61;30.18
10115;BME280;5097;43.260;27.812;2023-08-21T08:14:12;100107.22;;;33.85;29.49
10115;BME280;5097;43.260;27.812;2023-08-21T08:16:57;100128.00;;;33.74;29.20
10115;BME280;5097;43.260;27.812;2023-08-21T08:19:41;100115.53;;;33.79;29.36
10115;BME280;5097;43.260;27.812;2023-08-21T08:22:25;100112.59;;;33.92;29.42
10115;BME280;5097;43.260;27.812;2023-08-21T08:25:09;100111.66;;;34.46;28.87
10115;BME280;5097;43.260;27.812;2023-08-21T08:27:53;100125.31;;;34.10;28.38
10115;BME280;5097;43.260;27.812;2023-08-21T08:30:37;100109.13;;;34.08;28.19
10115;BME280;5097;43.260;27.812;2023-08-21T08:33:23;100111.63;;;34.22;28.35
10115;BME280;5097;43.260;27.812;2023-08-21T08:36:08;100082.56;;;33.85;27.82
10115;BME280;5097;43.260;27.812;2023-08-21T08:38:52;100092.22;;;34.35;26.78
10115;BME280;5097;43.260;27.812;2023-08-21T08:41:41;100112.22;;;34.48;27.41
10115;BME280;5097;43.260;27.812;2023-08-21T08:44:27;100103.28;;;34.29;28.14
10115;BME280;5097;43.260;27.812;2023-08-21T08:47:13;100095.63;;;34.66;27.68
10115;BME280;5097;43.260;27.812;2023-08-21T08:50:01;100091.44;;;34.75;27.72
10115;BME280;5097;43.260;27.812;2023-08-21T08:52:47;100080.09;;;34.72;28.23
10115;BME280;5097;43.260;27.812;2023-08-21T08:55:33;100086.19;;;34.86;28.09
10115;BME280;5097;43.260;27.812;2023-08-21T08:58:17;100081.78;;;34.73;25.67
10115;BME280;5097;43.260;27.812;2023-08-21T09:01:01;100087.13;;;34.91;25.37
10115;BME280;5097;43.260;27.812;2023-08-21T09:03:45;100083.97;;;34.59;25.03
10115;BME280;5097;43.260;27.812;2023-08-21T09:06:32;100071.63;;;34.73;25.59
10115;BME280;5097;43.260;27.812;2023-08-21T09:09:16;100069.69;;;34.98;25.75
10115;BME280;5097;43.260;27.812;2023-08-21T09:12:09;100074.81;;;34.94;26.24
10115;BME280;5097;43.260;27.812;2023-08-21T09:14:53;100066.44;;;35.01;26.05
10115;BME280;5097;43.260;27.812;2023-08-21T09:17:37;100070.47;;;35.10;26.24
10115;BME280;5097;43.260;27.812;2023-08-21T09:20:22;100070.22;;;35.12;24.67
10115;BME280;5097;43.260;27.812;2023-08-21T09:23:08;100061.56;;;35.20;23.40
10115;BME280;5097;43.260;27.812;2023-08-21T09:25:52;100070.41;;;35.22;23.51
10115;BME280;5097;43.260;27.812;2023-08-21T09:28:37;100049.66;;;35.60;22.05
10115;BME280;5097;43.260;27.812;2023-08-21T09:31:22;100073.06;;;35.80;23.03
10115;BME280;5097;43.260;27.812;2023-08-21T09:34:06;100060.78;;;35.36;23.19
10115;BME280;5097;43.260;27.812;2023-08-21T09:36:54;100063.31;;;35.55;22.59
10115;BME280;5097;43.260;27.812;2023-08-21T09:39:39;100058.22;;;35.81;22.71
10115;BME280;5097;43.260;27.812;2023-08-21T09:42:25;100049.53;;;35.84;22.84
10115;BME280;5097;43.260;27.812;2023-08-21T09:45:09;100057.78;;;36.23;21.88
10115;BME280;5097;43.260;27.812;2023-08-21T09:47:53;100057.91;;;35.60;23.17
10115;BME280;5097;43.260;27.812;2023-08-21T09:50:38;100062.06;;;35.80;22.79
10115;BME280;5097;43.260;27.812;2023-08-21T09:53:23;100048.75;;;35.71;22.25
10115;BME280;5097;43.260;27.812;2023-08-21T09:56:27;100035.41;;;35.80;22.83
10115;BME280;5097;43.260;27.812;2023-08-21T09:59:12;100049.41;;;35.62;22.92
10115;BME280;5097;43.260;27.812;2023-08-21T10:01:58;100052.50;;;35.65;22.84
10115;BME280;5097;43.260;27.812;2023-08-21T10:04:43;100048.38;;;36.19;22.31
10115;BME280;5097;43.260;27.812;2023-08-21T10:07:29;100041.41;;;37.27;21.64
10115;BME280;5097;43.260;27.812;2023-08-21T10:10:13;100034.06;;;37.70;21.19
10115;BME280;5097;43.260;27.812;2023-08-21T10:13:00;100045.72;;;36.07;22.00
10115;BME280;5097;43.260;27.812;2023-08-21T10:15:46;100042.16;;;36.29;22.05
10115;BME280;5097;43.260;27.812;2023-08-21T10:18:32;100033.53;;;36.20;20.94
10115;BME280;5097;43.260;27.812;2023-08-21T10:21:17;100022.66;;;36.97;20.87
10115;BME280;5097;43.260;27.812;2023-08-21T10:24:01;100025.31;;;37.41;20.37
10115;BME280;5097;43.260;27.812;2023-08-21T10:26:45;100040.28;;;36.96;20.33
10115;BME280;5097;43.260;27.812;2023-08-21T10:29:31;100040.34;;;36.79;20.44
10115;BME280;5097;43.260;27.812;2023-08-21T10:32:22;100029.41;;;36.39;21.01
10115;BME280;5097;43.260;27.812;2023-08-21T10:35:14;100024.34;;;35.92;21.66
10115;BME280;5097;43.260;27.812;2023-08-21T10:38:05;100028.59;;;36.00;21.58
10115;BME280;5097;43.260;27.812;2023-08-21T10:41:06;99991.44;;;35.63;21.29
10115;BME280;5097;43.260;27.812;2023-08-21T10:43:50;100015.09;;;35.98;21.41
10115;BME280;5097;43.260;27.812;2023-08-21T10:46:51;100008.91;;;36.30;21.10
10115;BME280;5097;43.260;27.812;2023-08-21T10:49:35;100017.69;;;36.27;20.89
10115;BME280;5097;43.260;27.812;2023-08-21T10:52:23;100019.81;;;36.86;20.28
10115;BME280;5097;43.260;27.812;2023-08-21T10:55:09;100013.94;;;36.55;21.15
10115;BME280;5097;43.260;27.812;2023-08-21T10:57:53;100002.25;;;36.04;21.92
10115;BME280;5097;43.260;27.812;2023-08-21T11:00:37;100017.22;;;36.80;21.20
10115;BME280;5097;43.260;27.812;2023-08-21T11:03:22;100001.97;;;36.45;21.41
10115;BME280;5097;43.260;27.812;2023-08-21T11:06:08;100007.53;;;36.72;21.60
10115;BME280;5097;43.260;27.812;2023-08-21T11:08:52;100001.03;;;37.11;21.25
10115;BME280;5097;43.260;27.812;2023-08-21T11:11:36;100003.50;;;37.34;20.49
10115;BME280;5097;43.260;27.812;2023-08-21T11:14:25;100009.22;;;37.00;20.43
10115;BME280;5097;43.260;27.812;2023-08-21T11:17:09;100003.88;;;36.88;21.17
10115;BME280;5097;43.260;27.812;2023-08-21T11:19:56;100008.88;;;36.47;21.60
10115;BME280;5097;43.260;27.812;2023-08-21T11:22:40;99985.13;;;36.85;21.78
10115;BME280;5097;43.260;27.812;2023-08-21T11:25:24;99989.34;;;36.71;21.27
10115;BME280;5097;43.260;27.812;2023-08-21T11:28:09;99991.06;;;36.77;21.11
10115;BME280;5097;43.260;27.812;2023-08-21T11:30:54;100005.88;;;36.98;20.97
10115;BME280;5097;43.260;27.812;2023-08-21T11:33:38;99996.88;;;36.81;21.07
10115;BME280;5097;43.260;27.812;2023-08-21T11:36:24;100004.06;;;36.60;20.91
10115;BME280;5097;43.260;27.812;2023-08-21T11:39:08;100004.63;;;36.17;21.60
10115;BME280;5097;43.260;27.812;2023-08-21T11:41:55;99983.19;;;36.36;21.52
10115;BME280;5097;43.260;27.812;2023-08-21T11:44:41;99978.59;;;36.69;21.05
10115;BME280;5097;43.260;27.812;2023-08-21T11:47:30;99997.13;;;37.01;20.97
10115;BME280;5097;43.260;27.812;2023-08-21T11:50:15;99978.50;;;36.86;20.21
10115;BME280;5097;43.260;27.812;2023-08-21T11:53:03;100000.50;;;37.09;20.96
10115;BME280;5097;43.260;27.812;2023-08-21T11:55:48;99996.84;;;37.30;21.00
10115;BME280;5097;43.260;27.812;2023-08-21T11:58:32;99993.91;;;37.42;20.83
10115;BME280;5097;43.260;27.812;2023-08-21T12:01:17;100000.53;;;37.14;22.73
10115;BME280;5097;43.260;27.812;2023-08-21T12:04:14;99971.22;;;37.02;23.66
10115;BME280;5097;43.260;27.812;2023-08-21T12:06:58;99978.16;;;37.32;24.78
10115;BME280;5097;43.260;27.812;2023-08-21T12:09:47;99975.53;;;37.20;25.12
10115;BME280;5097;43.260;27.812;2023-08-21T12:12:31;99991.09;;;37.74;24.12
10115;BME280;5097;43.260;27.812;2023-08-21T12:15:15;99979.38;;;37.52;24.27
10115;BME280;5097;43.260;27.812;2023-08-21T12:17:59;99999.47;;;37.15;24.20
10115;BME280;5097;43.260;27.812;2023-08-21T12:20:43;99999.78;;;37.56;23.70
10115;BME280;5097;43.260;27.812;2023-08-21T12:23:27;99980.44;;;37.46;24.21
10115;BME280;5097;43.260;27.812;2023-08-21T12:26:13;99986.06;;;37.61;23.66
10115;BME280;5097;43.260;27.812;2023-08-21T12:29:03;100013.47;;;37.40;21.78
10115;BME280;5097;43.260;27.812;2023-08-21T12:31:47;100000.53;;;37.79;22.94
10115;BME280;5097;43.260;27.812;2023-08-21T12:34:31;100001.38;;;37.47;23.29
10115;BME280;5097;43.260;27.812;2023-08-21T12:37:15;99997.84;;;37.89;23.12
10115;BME280;5097;43.260;27.812;2023-08-21T12:39:59;99998.59;;;37.42;23.37
10115;BME280;5097;43.260;27.812;2023-08-21T12:42:46;100003.38;;;37.24;22.90
10115;BME280;5097;43.260;27.812;2023-08-21T12:45:30;99977.50;;;36.70;22.62
10115;BME280;5097;43.260;27.812;2023-08-21T12:48:14;99997.84;;;36.92;22.58
10115;BME280;5097;43.260;27.812;2023-08-21T12:50:58;99997.03;;;36.91;22.08
10115;BME280;5097;43.260;27.812;2023-08-21T12:53:42;99995.09;;;37.19;23.02
10115;BME280;5097;43.260;27.812;2023-08-21T12:56:26;100004.75;;;36.94;21.37
10115;BME280;5097;43.260;27.812;2023-08-21T12:59:12;100016.53;;;36.67;21.83
10115;BME280;5097;43.260;27.812;2023-08-21T13:01:59;100007.59;;;36.55;21.17
10115;BME280;5097;43.260;27.812;2023-08-21T13:04:43;99969.34;;;36.81;21.26
10115;BME280;5097;43.260;27.812;2023-08-21T13:07:27;99995.53;;;37.76;24.69
10115;BME280;5097;43.260;27.812;2023-08-21T13:10:11;99991.88;;;37.65;24.95
10115;BME280;5097;43.260;27.812;2023-08-21T13:12:55;99998.56;;;36.82;22.75
10115;BME280;5097;43.260;27.812;2023-08-21T13:15:40;99995.41;;;36.73;26.70
10115;BME280;5097;43.260;27.812;2023-08-21T13:18:27;99986.28;;;36.89;24.70
10115;BME280;5097;43.260;27.812;2023-08-21T13:21:11;99992.06;;;36.93;22.28
10115;BME280;5097;43.260;27.812;2023-08-21T13:23:55;99986.94;;;36.80;21.34
10115;BME280;5097;43.260;27.812;2023-08-21T13:26:39;100003.38;;;36.47;21.35
10115;BME280;5097;43.260;27.812;2023-08-21T13:29:23;99999.34;;;36.55;22.12
10115;BME280;5097;43.260;27.812;2023-08-21T13:32:08;99994.75;;;36.38;22.50
10115;BME280;5097;43.260;27.812;2023-08-21T13:34:53;100007.59;;;36.55;22.89
10115;BME280;5097;43.260;27.812;2023-08-21T13:37:38;99995.28;;;36.85;21.73
10115;BME280;5097;43.260;27.812;2023-08-21T13:40:23;100001.69;;;36.68;21.47
10115;BME280;5097;43.260;27.812;2023-08-21T13:43:07;100004.06;;;36.82;21.27
10115;BME280;5097;43.260;27.812;2023-08-21T13:45:52;100007.72;;;36.65;21.50
10115;BME280;5097;43.260;27.812;2023-08-21T13:48:37;99985.72;;;36.65;21.62
10115;BME280;5097;43.260;27.812;2023-08-21T13:51:21;100005.41;;;36.57;21.78
10115;BME280;5097;43.260;27.812;2023-08-21T13:54:05;100001.38;;;36.65;21.94
10115;BME280;5097;43.260;27.812;2023-08-21T13:56:49;100002.84;;;36.72;22.35
10115;BME280;5097;43.260;27.812;2023-08-21T13:59:34;100002.09;;;36.55;22.32
10115;BME280;5097;43.260;27.812;2023-08-21T14:02:18;100000.28;;;36.88;22.47
10115;BME280;5097;43.260;27.812;2023-08-21T14:05:04;100020.09;;;36.40;23.61
10115;BME280;5097;43.260;27.812;2023-08-21T14:07:48;100019.22;;;36.18;24.29
10115;BME280;5097;43.260;27.812;2023-08-21T14:10:32;100008.19;;;36.35;24.42
10115;BME280;5097;43.260;27.812;2023-08-21T14:13:16;100021.69;;;36.36;24.77
10115;BME280;5097;43.260;27.812;2023-08-21T14:16:00;100023.06;;;36.61;24.64
10115;BME280;5097;43.260;27.812;2023-08-21T14:18:44;99914.25;;;36.76;23.65
10115;BME280;5097;43.260;27.812;2023-08-21T14:21:29;99989.50;;;36.37;24.37
10115;BME280;5097;43.260;27.812;2023-08-21T14:24:13;100015.78;;;35.71;25.36
10115;BME280;5097;43.260;27.812;2023-08-21T14:26:57;100022.44;;;35.76;25.64